Port Fraser — CZ3230 — position and weather

sailwx.info

Track history (hours):
 
Tides and Currents Weather Stations Pressure Air Temp Water Temp Dewpoint Dewpoint Depression Visibility Wind Speed Wind Dir Waves Ship Positions

Port Fraser

Last reported at 2017-Nov-20 00:04 UTC. Time now 2017-Nov-24 16:45 UTC.
Position N 49°12' W 122°55'.

; draft 0.1 m.

Type: Other ship. MMSI: 31200012.

Date/timePositionNaut miles runAvg speedWind from/ knotsBaromVisibWave heightAir tempDewpointWater temp
2017-Nov-20 00:04N 49°12' W 122°55'1 7.8
2017-Nov-19 23:55N 49°12' W 122°54'5 8.4
2017-Nov-19 23:17N 49°14' W 122°46'311.2
2017-Nov-19 23:00N 49°12' W 122°42'1 2.0
2017-Nov-19 22:21N 49°12' W 122°44'2 7.1
2017-Nov-19 22:00N 49°15' W 122°44'3 5.6
2017-Nov-19 21:30N 49°17' W 122°42'2 1.6
2017-Nov-19 20:23N 49°18' W 122°40'3 7.1
2017-Nov-19 20:00N 49°16' W 122°43'2 3.3
2017-Nov-19 19:29N 49°15' W 122°44'2 4.8
2017-Nov-19 18:59N 49°13' W 122°47'4 8.6
2017-Nov-19 18:30N 49°13' W 122°53'2 4.8
2017-Nov-19 18:00N 49°11' W 122°55'1 0.0
2017-Nov-19 00:24N 49°12' W 122°55'3 7.7
2017-Nov-19 00:00N 49°13' W 122°51'0 0.3
2017-Nov-18 23:10N 49°13' W 122°51'1 8.0
2017-Nov-18 23:00N 49°13' W 122°53'4 8.2
2017-Nov-18 22:30N 49°10' W 122°56'4 7.6
2017-Nov-18 22:00N 49°09' W 123°02'3 6.1
2017-Nov-18 21:29N 49°07' W 123°06'6 8.7
2017-Nov-18 20:47N 49°08' W 123°15'3 8.9
2017-Nov-18 20:25N 49°10' W 123°19'612.2
2017-Nov-18 19:58N 49°15' W 123°16'3 6.9
2017-Nov-18 19:30N 49°13' W 123°12'4 8.1
2017-Nov-18 19:00N 49°12' W 123°06'3 7.0
2017-Nov-18 18:30N 49°12' W 123°01'4 0.2
2017-Nov-18 00:29N 49°12' W 122°55'3 6.1
2017-Nov-18 00:00N 49°13' W 122°51'4 7.9
2017-Nov-17 23:30N 49°10' W 122°56'1 1.0
2017-Nov-17 22:58N 49°11' W 122°55'0 0.6
2017-Nov-17 22:30N 49°10' W 122°55'1 0.7
2017-Nov-17 20:47N 49°12' W 122°55'0 0.0
2017-Nov-17 20:30N 49°12' W 122°55'0 0.0
2017-Nov-17 19:59N 49°12' W 122°55'0 0.0
2017-Nov-17 19:29N 49°12' W 122°55'0 0.0
2017-Nov-17 18:59N 49°12' W 122°55'1 1.6
2017-Nov-17 18:30N 49°11' W 122°55'3 5.2
2017-Nov-17 18:00N 49°10' W 122°59'3 0.2
2017-Nov-16 23:28N 49°12' W 122°55'2 4.5
2017-Nov-16 22:59N 49°10' W 122°58'1 2.3
2017-Nov-16 22:30N 49°10' W 122°59'3 1.3
2017-Nov-16 19:51N 49°11' W 122°55'0 0.5
2017-Nov-16 19:27N 49°12' W 122°55'0 0.2
2017-Nov-16 18:55N 49°12' W 122°55'0 0.0
2017-Nov-16 17:14N 49°12' W 122°55'0 0.0
2017-Nov-16 16:54N 49°12' W 122°55'0 0.0
2017-Nov-16 16:30N 49°12' W 122°55'1 0.1
2017-Nov-15 23:22N 49°12' W 122°54'2 6.4
2017-Nov-15 23:00N 49°13' W 122°50'4 6.6
2017-Nov-15 22:28N 49°11' W 122°55'3 5.8
2017-Nov-15 21:56N 49°09' W 122°59'2 4.4
2017-Nov-15 21:30N 49°10' W 122°56'  
2017-Nov-12 19:30N 49°11' W 122°55'5 9.1
2017-Nov-12 18:58N 49°09' W 123°02'510.4
2017-Nov-12 18:28N 49°06' W 123°09'2 4.0
2017-Nov-12 17:57N 49°07' W 123°06'7 0.4
2017-Nov-11 22:23N 49°13' W 123°11'3 7.5
2017-Nov-11 21:58N 49°15' W 123°15'14 0.4
2017-Nov-10 15:23N 49°12' W 122°55'0 0.0
2017-Nov-10 14:56N 49°12' W 122°55'0 0.0
2017-Nov-10 14:15N 49°12' W 122°55'0 0.0
2017-Nov-10 13:46N 49°12' W 122°55'0 0.0
2017-Nov-10 13:21N 49°12' W 122°55'0 0.0
2017-Nov-10 12:55N 49°12' W 122°55'0 0.0
2017-Nov-10 12:05N 49°12' W 122°55'0 0.0
2017-Nov-10 12:00N 49°12' W 122°55'0 0.0
2017-Nov-10 10:43N 49°12' W 122°55'0 0.0
2017-Nov-10 10:24N 49°12' W 122°55'0 0.0
2017-Nov-10 09:57N 49°12' W 122°55'0 0.0
2017-Nov-10 09:30N 49°12' W 122°55'0 0.0
2017-Nov-10 08:58N 49°12' W 122°55'0 0.0
2017-Nov-10 08:22N 49°12' W 122°55'0 0.0
2017-Nov-10 08:00N 49°12' W 122°55'0 0.0
2017-Nov-10 07:29N 49°12' W 122°55'0 0.0
2017-Nov-10 06:57N 49°12' W 122°55'0 0.0
2017-Nov-10 06:30N 49°12' W 122°55'0 0.0
2017-Nov-10 06:00N 49°12' W 122°55'0 0.0
2017-Nov-10 05:30N 49°12' W 122°55'0 0.0
2017-Nov-10 04:46N 49°12' W 122°55'0 0.0
2017-Nov-10 04:28N 49°12' W 122°55'0 0.0
2017-Nov-10 04:00N 49°12' W 122°55'0 0.0
2017-Nov-10 03:27N 49°12' W 122°55'0 0.0
2017-Nov-10 03:00N 49°12' W 122°55'0 0.0
2017-Nov-10 02:25N 49°12' W 122°55'0 0.0
2017-Nov-10 02:00N 49°12' W 122°55'0 0.0
2017-Nov-10 01:28N 49°12' W 122°55'0 0.0
2017-Nov-10 00:15N 49°12' W 122°55'  
Track history (hours):
 
Tides and Currents Weather Stations Pressure Air Temp Water Temp Dewpoint Dewpoint Depression Visibility Wind Speed Wind Dir Waves Ship Positions

Port Fraser

Last reported at 2017-Nov-20 00:04 UTC. Time now 2017-Nov-24 16:45 UTC.
Position N 49°12' W 122°55'.

; draft 0.1 m.

Type: Other ship. MMSI: 31200012.

Date/timePositionNaut miles runAvg speedWind from/ knotsBaromVisibWave heightAir tempDewpointWater temp
2017-Nov-20 00:04N 49°12' W 122°55'1 7.8
2017-Nov-19 23:55N 49°12' W 122°54'5 8.4
2017-Nov-19 23:17N 49°14' W 122°46'311.2
2017-Nov-19 23:00N 49°12' W 122°42'1 2.0
2017-Nov-19 22:21N 49°12' W 122°44'2 7.1
2017-Nov-19 22:00N 49°15' W 122°44'3 5.6
2017-Nov-19 21:30N 49°17' W 122°42'2 1.6
2017-Nov-19 20:23N 49°18' W 122°40'3 7.1
2017-Nov-19 20:00N 49°16' W 122°43'2 3.3
2017-Nov-19 19:29N 49°15' W 122°44'2 4.8
2017-Nov-19 18:59N 49°13' W 122°47'4 8.6
2017-Nov-19 18:30N 49°13' W 122°53'2 4.8
2017-Nov-19 18:00N 49°11' W 122°55'1 0.0
2017-Nov-19 00:24N 49°12' W 122°55'3 7.7
2017-Nov-19 00:00N 49°13' W 122°51'0 0.3
2017-Nov-18 23:10N 49°13' W 122°51'1 8.0
2017-Nov-18 23:00N 49°13' W 122°53'4 8.2
2017-Nov-18 22:30N 49°10' W 122°56'4 7.6
2017-Nov-18 22:00N 49°09' W 123°02'3 6.1
2017-Nov-18 21:29N 49°07' W 123°06'6 8.7
2017-Nov-18 20:47N 49°08' W 123°15'3 8.9
2017-Nov-18 20:25N 49°10' W 123°19'612.2
2017-Nov-18 19:58N 49°15' W 123°16'3 6.9
2017-Nov-18 19:30N 49°13' W 123°12'4 8.1
2017-Nov-18 19:00N 49°12' W 123°06'3 7.0
2017-Nov-18 18:30N 49°12' W 123°01'4 0.2
2017-Nov-18 00:29N 49°12' W 122°55'3 6.1
2017-Nov-18 00:00N 49°13' W 122°51'4 7.9
2017-Nov-17 23:30N 49°10' W 122°56'1 1.0
2017-Nov-17 22:58N 49°11' W 122°55'0 0.6
2017-Nov-17 22:30N 49°10' W 122°55'1 0.7
2017-Nov-17 20:47N 49°12' W 122°55'0 0.0
2017-Nov-17 20:30N 49°12' W 122°55'0 0.0
2017-Nov-17 19:59N 49°12' W 122°55'0 0.0
2017-Nov-17 19:29N 49°12' W 122°55'0 0.0
2017-Nov-17 18:59N 49°12' W 122°55'1 1.6
2017-Nov-17 18:30N 49°11' W 122°55'3 5.2
2017-Nov-17 18:00N 49°10' W 122°59'3 0.2
2017-Nov-16 23:28N 49°12' W 122°55'2 4.5
2017-Nov-16 22:59N 49°10' W 122°58'1 2.3
2017-Nov-16 22:30N 49°10' W 122°59'3 1.3
2017-Nov-16 19:51N 49°11' W 122°55'0 0.5
2017-Nov-16 19:27N 49°12' W 122°55'0 0.2
2017-Nov-16 18:55N 49°12' W 122°55'0 0.0
2017-Nov-16 17:14N 49°12' W 122°55'0 0.0
2017-Nov-16 16:54N 49°12' W 122°55'0 0.0
2017-Nov-16 16:30N 49°12' W 122°55'1 0.1
2017-Nov-15 23:22N 49°12' W 122°54'2 6.4
2017-Nov-15 23:00N 49°13' W 122°50'4 6.6
2017-Nov-15 22:28N 49°11' W 122°55'3 5.8
2017-Nov-15 21:56N 49°09' W 122°59'2 4.4
2017-Nov-15 21:30N 49°10' W 122°56'  
2017-Nov-12 19:30N 49°11' W 122°55'5 9.1
2017-Nov-12 18:58N 49°09' W 123°02'510.4
2017-Nov-12 18:28N 49°06' W 123°09'2 4.0
2017-Nov-12 17:57N 49°07' W 123°06'7 0.4
2017-Nov-11 22:23N 49°13' W 123°11'3 7.5
2017-Nov-11 21:58N 49°15' W 123°15'14 0.4
2017-Nov-10 15:23N 49°12' W 122°55'0 0.0
2017-Nov-10 14:56N 49°12' W 122°55'0 0.0
2017-Nov-10 14:15N 49°12' W 122°55'0 0.0
2017-Nov-10 13:46N 49°12' W 122°55'0 0.0
2017-Nov-10 13:21N 49°12' W 122°55'0 0.0
2017-Nov-10 12:55N 49°12' W 122°55'0 0.0
2017-Nov-10 12:05N 49°12' W 122°55'0 0.0
2017-Nov-10 12:00N 49°12' W 122°55'0 0.0
2017-Nov-10 10:43N 49°12' W 122°55'0 0.0
2017-Nov-10 10:24N 49°12' W 122°55'0 0.0
2017-Nov-10 09:57N 49°12' W 122°55'0 0.0
2017-Nov-10 09:30N 49°12' W 122°55'0 0.0
2017-Nov-10 08:58N 49°12' W 122°55'0 0.0
2017-Nov-10 08:22N 49°12' W 122°55'0 0.0
2017-Nov-10 08:00N 49°12' W 122°55'0 0.0
2017-Nov-10 07:29N 49°12' W 122°55'0 0.0
2017-Nov-10 06:57N 49°12' W 122°55'0 0.0
2017-Nov-10 06:30N 49°12' W 122°55'0 0.0
2017-Nov-10 06:00N 49°12' W 122°55'0 0.0
2017-Nov-10 05:30N 49°12' W 122°55'0 0.0
2017-Nov-10 04:46N 49°12' W 122°55'0 0.0
2017-Nov-10 04:28N 49°12' W 122°55'0 0.0
2017-Nov-10 04:00N 49°12' W 122°55'0 0.0
2017-Nov-10 03:27N 49°12' W 122°55'0 0.0
2017-Nov-10 03:00N 49°12' W 122°55'0 0.0
2017-Nov-10 02:25N 49°12' W 122°55'0 0.0
2017-Nov-10 02:00N 49°12' W 122°55'0 0.0
2017-Nov-10 01:28N 49°12' W 122°55'0 0.0
2017-Nov-10 00:15N 49°12' W 122°55'  

Dump ship's entire track history